Time;durP1;ratioP1;P1;durP2;ratioP2;P2;SDS_P1;SDS_P2;PMS_P1;PMS_P2;Temp;Humidity;BMP_temperature;BMP_pressure;BME280_temperature;BME280_humidity;BME280_pressure;Samples;Min_cycle;Max_cycle;Signal;HPM_P1;HPM_P2
2023/06/07 00:00:45;;;;;;;4.43;2.50;;;20.60;73.80;;;;;;5075419;28;20124;-40
2023/06/07 00:03:14;;;;;;;4.07;2.45;;;;;;;;;;5075307;28;20052;-37
2023/06/07 00:05:41;;;;;;;3.65;2.30;;;20.80;73.00;;;;;;5075630;28;20060;-38
2023/06/07 00:08:09;;;;;;;3.83;2.50;;;19.90;72.60;;;;;;5075436;28;20052;-40
2023/06/07 00:10:36;;;;;;;3.58;2.40;;;;;;;;;;5074883;28;20431;-34
2023/06/07 00:13:03;;;;;;;3.08;2.42;;;20.40;73.00;;;;;;5074843;28;20044;-40
2023/06/07 00:15:30;;;;;;;3.03;2.25;;;;;;;;;;5075493;28;20048;-34
2023/06/07 00:17:59;;;;;;;3.40;2.10;;;20.10;70.30;;;;;;5075414;28;20051;-40
2023/06/07 00:20:26;;;;;;;3.97;2.15;;;;;;;;;;5075457;28;20059;-35
2023/06/07 00:22:55;;;;;;;4.00;2.40;;;20.00;70.00;;;;;;5075005;28;20131;-41
2023/06/07 00:25:23;;;;;;;4.18;2.22;;;21.40;73.50;;;;;;5061993;28;20049;-36
2023/06/07 00:27:50;;;;;;;3.85;2.35;;;19.90;72.60;;;;;;5054789;28;20045;-38
2023/06/07 00:30:17;;;;;;;3.95;2.33;;;;;;;;;;5055244;28;20059;-34
2023/06/07 00:32:44;;;;;;;3.38;2.25;;;19.80;73.10;;;;;;5054955;28;20056;-39
2023/06/07 00:35:11;;;;;;;5.18;2.20;;;20.40;55.50;;;;;;5054767;28;20544;-34
2023/06/07 00:37:38;;;;;;;3.97;2.20;;;20.00;73.60;;;;;;5069304;28;20045;-40
2023/06/07 00:40:06;;;;;;;3.92;2.47;;;19.80;55.10;;;;;;5073993;28;20051;-37
2023/06/07 00:42:34;;;;;;;4.00;2.53;;;20.30;55.40;;;;;;5074324;28;20217;-37
2023/06/07 00:45:01;;;;;;;3.42;2.05;;;19.60;73.30;;;;;;5074745;28;20048;-40
2023/06/07 00:47:27;;;;;;;3.63;2.60;;;20.20;64.10;;;;;;5074594;28;20052;-38
2023/06/07 00:49:54;;;;;;;3.10;2.20;;;20.70;72.50;;;;;;5074653;28;20055;-39
2023/06/07 00:52:21;;;;;;;3.60;2.17;;;20.70;73.40;;;;;;5074342;28;20049;-39
2023/06/07 00:54:48;;;;;;;3.00;2.15;;;20.30;63.70;;;;;;5073878;28;20122;-37
2023/06/07 00:57:15;;;;;;;3.72;2.25;;;20.70;73.00;;;;;;5074136;28;20044;-38
2023/06/07 00:59:43;;;;;;;3.78;2.20;;;20.00;55.90;;;;;;5074704;28;20125;-39
2023/06/07 01:02:14;;;;;;;4.05;2.40;;;19.40;64.40;;;;;;5074155;28;20075;-39
2023/06/07 01:04:42;;;;;;;3.80;2.30;;;20.70;73.40;;;;;;5074721;28;20419;-39
2023/06/07 01:07:09;;;;;;;4.53;2.33;;;19.80;73.50;;;;;;5074366;28;20139;-38
2023/06/07 01:09:36;;;;;;;2.55;2.13;;;20.00;72.80;;;;;;5073166;28;20745;-35
2023/06/07 01:12:03;;;;;;;4.20;2.38;;;20.30;72.90;;;;;;5072602;28;20446;-39
2023/06/07 01:14:29;;;;;;;4.53;2.10;;;20.50;73.10;;;;;;5073941;28;20136;-37
2023/06/07 01:16:58;;;;;;;3.22;2.25;;;20.20;55.40;;;;;;5074024;28;20512;-37
2023/06/07 01:19:27;;;;;;;3.70;2.30;;;20.60;67.20;;;;;;5074059;28;20102;-38
2023/06/07 01:21:57;;;;;;;3.97;2.03;;;20.20;55.40;;;;;;5074069;28;20482;-39
2023/06/07 01:24:28;;;;;;;3.22;2.20;;;20.50;62.60;;;;;;5073466;28;20115;-39
2023/06/07 01:26:57;;;;;;;2.90;2.30;;;20.50;71.80;;;;;;5073925;28;20072;-41
2023/06/07 01:29:24;;;;;;;3.50;2.28;;;19.90;73.20;;;;;;5073789;28;20448;-39
2023/06/07 01:31:51;;;;;;;3.72;2.20;;;;;;;;;;5074260;28;20086;-37
2023/06/07 01:34:19;;;;;;;3.50;2.00;;;;;;;;;;5073626;28;20067;-40
2023/06/07 01:36:46;;;;;;;3.08;2.30;;;20.10;73.30;;;;;;5072394;28;20456;-37
2023/06/07 01:39:13;;;;;;;3.60;2.40;;;;;;;;;;5066294;28;20051;-39
2023/06/07 01:41:41;;;;;;;3.65;2.00;;;20.20;55.40;;;;;;5073684;28;20056;-40
2023/06/07 01:44:08;;;;;;;3.72;2.30;;;19.40;72.40;;;;;;5073785;28;20094;-40
2023/06/07 01:46:35;;;;;;;2.47;2.10;;;;;;;;;;5073272;28;20431;-33
2023/06/07 01:49:03;;;;;;;2.92;2.28;;;20.20;73.50;;;;;;5073487;28;20123;-40
2023/06/07 01:51:30;;;;;;;5.70;2.72;;;19.90;72.90;;;;;;5073040;28;20136;-37
2023/06/07 01:53:57;;;;;;;3.65;2.28;;;;;;;;;;5073470;28;20065;-37
2023/06/07 01:56:27;;;;;;;3.72;2.30;;;20.00;73.70;;;;;;5073131;28;20127;-37
2023/06/07 01:59:00;;;;;;;3.35;2.10;;;19.80;60.40;;;;;;5073288;28;20234;-38
2023/06/07 02:01:38;;;;;;;4.05;2.40;;;20.10;55.40;;;;;;5073432;28;20127;-36
2023/06/07 02:04:06;;;;;;;3.15;2.00;;;19.20;72.50;;;;;;5073309;28;20144;-39
2023/06/07 02:06:34;;;;;;;3.10;2.10;;;19.80;73.60;;;;;;5073039;28;20056;-40
2023/06/07 02:09:02;;;;;;;3.00;2.05;;;20.30;55.50;;;;;;5062279;28;20507;-39
2023/06/07 02:11:29;;;;;;;3.83;2.15;;;20.30;62.30;;;;;;5053123;28;20136;-41
2023/06/07 02:13:57;;;;;;;2.60;1.90;;;20.10;55.40;;;;;;5052287;28;20072;-37
2023/06/07 02:16:32;;;;;;;3.85;2.47;;;20.10;55.40;;;;;;5052836;28;20569;-35
2023/06/07 02:18:59;;;;;;;3.08;2.05;;;19.60;72.80;;;;;;5053236;28;20448;-39
2023/06/07 02:21:26;;;;;;;3.20;1.95;;;19.10;72.50;;;;;;5053043;28;20053;-39
2023/06/07 02:23:52;;;;;;;2.75;1.98;;;19.60;68.60;;;;;;5064431;28;20475;-37
2023/06/07 02:26:20;;;;;;;3.17;2.35;;;20.50;73.20;;;;;;5072773;28;20056;-39
2023/06/07 02:28:47;;;;;;;3.10;2.15;;;20.80;71.40;;;;;;5072711;28;20055;-39
2023/06/07 02:31:15;;;;;;;3.03;2.05;;;19.80;73.00;;;;;;5072652;28;20127;-39
2023/06/07 02:33:42;;;;;;;4.60;2.25;;;19.70;70.30;;;;;;5072617;28;20132;-40
2023/06/07 02:36:09;;;;;;;3.42;2.17;;;;;;;;;;5071837;28;20056;-37
2023/06/07 02:38:36;;;;;;;3.78;2.10;;;;;;;;;;5071922;28;20049;-39
2023/06/07 02:41:03;;;;;;;2.70;1.85;;;19.10;73.20;;;;;;5072209;28;20584;-36
2023/06/07 02:43:30;;;;;;;3.50;2.35;;;19.90;73.30;;;;;;5072198;28;20108;-40
2023/06/07 02:45:56;;;;;;;4.20;2.15;;;19.80;70.70;;;;;;5072605;28;20047;-40
2023/06/07 02:48:24;;;;;;;3.00;1.88;;;20.00;55.40;;;;;;5072546;28;20124;-37
2023/06/07 02:50:51;;;;;;;3.15;2.08;;;20.50;64.60;;;;;;5072367;28;20135;-37
2023/06/07 02:53:18;;;;;;;3.63;1.75;;;19.50;72.80;;;;;;5056671;28;20128;-38
2023/06/07 02:55:45;;;;;;;3.80;2.10;;;20.10;73.10;;;;;;5051930;28;20053;-36
2023/06/07 02:58:13;;;;;;;3.03;1.90;;;19.10;65.40;;;;;;5052336;28;20103;-39
2023/06/07 03:00:40;;;;;;;3.28;1.85;;;;;;;;;;5060789;28;20110;-36
2023/06/07 03:03:07;;;;;;;3.78;2.10;;;19.70;62.00;;;;;;5071114;28;20048;-41
2023/06/07 03:05:35;;;;;;;4.15;2.10;;;19.80;59.80;;;;;;5072106;28;20135;-36
2023/06/07 03:08:02;;;;;;;2.67;1.92;;;19.60;71.10;;;;;;5071860;28;20052;-40
2023/06/07 03:10:30;;;;;;;3.25;1.83;;;;;;;;;;5071991;28;20044;-38
2023/06/07 03:12:56;;;;;;;2.95;1.70;;;20.30;73.20;;;;;;5071759;28;20502;-38
2023/06/07 03:15:23;;;;;;;3.38;1.95;;;20.40;73.40;;;;;;5071612;28;20143;-36
2023/06/07 03:17:50;;;;;;;3.85;1.90;;;;;;;;;;5051671;28;20587;-37
2023/06/07 03:20:18;;;;;;;3.45;1.92;;;19.90;73.10;;;;;;5051863;28;20573;-39
2023/06/07 03:22:46;;;;;;;4.47;2.33;;;20.00;55.40;;;;;;5051652;28;20051;-38
2023/06/07 03:25:12;;;;;;;3.60;2.17;;;20.30;72.70;;;;;;5050888;28;20059;-40
2023/06/07 03:27:39;;;;;;;4.05;1.90;;;19.90;73.10;;;;;;5051961;28;20128;-40
2023/06/07 03:30:07;;;;;;;3.35;2.10;;;20.00;74.00;;;;;;5051820;28;20135;-40
2023/06/07 03:32:34;;;;;;;2.83;1.92;;;;;;;;;;5070796;28;20136;-38
2023/06/07 03:35:01;;;;;;;3.22;2.20;;;20.70;74.30;;;;;;5071771;28;20090;-38
2023/06/07 03:37:28;;;;;;;4.53;2.00;;;;;;;;;;5071025;28;20230;-40
2023/06/07 03:39:56;;;;;;;4.50;2.00;;;20.40;65.60;;;;;;5071672;28;20075;-38
2023/06/07 03:42:23;;;;;;;4.55;2.03;;;;;;;;;;5071546;28;20052;-39
2023/06/07 03:44:50;;;;;;;4.60;1.88;;;19.70;73.10;;;;;;5071155;28;20040;-39
2023/06/07 03:47:17;;;;;;;3.78;2.05;;;;;;;;;;5071589;28;20124;-38
2023/06/07 03:49:44;;;;;;;3.03;1.92;;;19.80;73.20;;;;;;5071504;28;20049;-38
2023/06/07 03:52:11;;;;;;;3.92;2.08;;;;;;;;;;5071356;28;20053;-33
2023/06/07 03:54:38;;;;;;;3.55;1.80;;;20.00;73.10;;;;;;5071824;28;20048;-39
2023/06/07 03:57:07;;;;;;;3.97;2.25;;;20.10;74.20;;;;;;5071719;28;20123;-41
2023/06/07 03:59:33;;;;;;;3.40;2.10;;;19.50;63.40;;;;;;5067903;28;20482;-37
2023/06/07 04:02:00;;;;;;;4.88;2.42;;;19.70;73.10;;;;;;5070957;28;20048;-41
2023/06/07 04:04:27;;;;;;;3.83;1.98;;;20.80;73.80;;;;;;5071144;28;20056;-38
2023/06/07 04:06:54;;;;;;;3.88;2.25;;;19.80;73.50;;;;;;5071648;28;20049;-40
2023/06/07 04:09:21;;;;;;;3.20;1.92;;;20.20;73.30;;;;;;5071276;28;20052;-37
2023/06/07 04:11:47;;;;;;;3.55;1.83;;;20.00;60.30;;;;;;5071383;28;20486;-37
2023/06/07 04:14:16;;;;;;;3.38;2.05;;;19.80;73.10;;;;;;5070405;28;20048;-40
2023/06/07 04:16:42;;;;;;;3.08;1.83;;;19.90;73.50;;;;;;5071239;28;20055;-39
2023/06/07 04:19:09;;;;;;;2.97;1.65;;;20.30;73.80;;;;;;5071303;28;20048;-38
2023/06/07 04:21:37;;;;;;;4.35;1.80;;;;;;;;;;5071473;28;20048;-38
2023/06/07 04:24:04;;;;;;;3.88;1.90;;;20.20;73.40;;;;;;5071159;28;20048;-40
2023/06/07 04:26:31;;;;;;;3.47;2.00;;;19.50;73.00;;;;;;5071251;28;20094;-40
2023/06/07 04:28:58;;;;;;;2.97;1.88;;;;;;;;;;5070810;28;20099;-38
2023/06/07 04:31:29;;;;;;;5.15;2.20;;;19.80;55.40;;;;;;5071251;28;20548;-36
2023/06/07 04:33:57;;;;;;;3.38;1.98;;;19.70;73.10;;;;;;5070989;28;20059;-41
2023/06/07 04:36:25;;;;;;;3.90;1.83;;;;;;;;;;5071065;28;20044;-37
2023/06/07 04:38:52;;;;;;;3.25;1.85;;;20.20;72.90;;;;;;5071862;28;20044;-40
2023/06/07 04:41:19;;;;;;;3.30;1.90;;;;;;;;;;5063826;28;20056;-37
2023/06/07 04:43:48;;;;;;;3.38;2.03;;;;;;;;;;5064127;28;20050;-40
2023/06/07 04:46:15;;;;;;;3.25;1.90;;;18.50;72.50;;;;;;5065387;28;20044;-41
2023/06/07 04:48:43;;;;;;;3.10;2.00;;;20.10;73.30;;;;;;5054697;28;20600;-41
2023/06/07 04:51:13;;;;;;;3.03;1.77;;;19.90;74.10;;;;;;5055008;28;20135;-41
2023/06/07 04:53:41;;;;;;;3.30;1.75;;;19.90;61.50;;;;;;5058200;28;20049;-41
2023/06/07 04:56:09;;;;;;;2.85;1.90;;;19.90;73.60;;;;;;5074656;28;20123;-40
2023/06/07 04:58:39;;;;;;;3.33;2.00;;;20.00;73.30;;;;;;5074011;28;20045;-41
2023/06/07 05:01:05;;;;;;;4.05;1.85;;;20.10;71.70;;;;;;5074755;28;20052;-41
2023/06/07 05:03:32;;;;;;;2.92;1.60;;;;;;;;;;5074463;28;20135;-38
2023/06/07 05:06:02;;;;;;;3.80;1.70;;;20.80;62.10;;;;;;5066435;28;20044;-40
2023/06/07 05:08:29;;;;;;;4.68;1.95;;;19.00;73.50;;;;;;5059718;28;20053;-41
2023/06/07 05:10:56;;;;;;;3.72;1.88;;;19.50;73.30;;;;;;5064378;28;20045;-41
2023/06/07 05:13:22;;;;;;;4.05;1.80;;;20.00;73.30;;;;;;5064510;28;20048;-40
2023/06/07 05:15:50;;;;;;;2.80;1.80;;;;;;;;;;5062844;28;20071;-36
2023/06/07 05:18:19;;;;;;;3.42;1.83;;;19.70;73.10;;;;;;5064243;28;20051;-40
2023/06/07 05:20:46;;;;;;;3.90;1.98;;;;;;;;;;5064720;28;20138;-39
2023/06/07 05:23:16;;;;;;;3.20;1.70;;;20.00;73.30;;;;;;5064338;28;20568;-41
2023/06/07 05:25:44;;;;;;;2.90;1.90;;;19.40;72.50;;;;;;5067036;28;20063;-41
2023/06/07 05:28:10;;;;;;;4.63;1.90;;;19.50;73.40;;;;;;5073526;28;20047;-41
2023/06/07 05:30:37;;;;;;;4.32;2.00;;;19.90;73.70;;;;;;5074126;28;20585;-41
2023/06/07 05:33:04;;;;;;;3.72;2.00;;;;;;;;;;5073733;28;20467;-38
2023/06/07 05:35:31;;;;;;;4.22;1.88;;;20.00;74.20;;;;;;5074154;28;20409;-41
2023/06/07 05:37:57;;;;;;;3.55;2.00;;;20.00;73.70;;;;;;5073331;28;20049;-41
2023/06/07 05:40:25;;;;;;;3.05;1.85;;;19.60;59.70;;;;;;5073920;28;20048;-40
2023/06/07 05:42:54;;;;;;;3.20;1.70;;;19.90;57.40;;;;;;5072984;28;20135;-39
2023/06/07 05:45:21;;;;;;;3.15;1.80;;;20.30;73.60;;;;;;5073703;28;20502;-38
2023/06/07 05:47:48;;;;;;;2.80;1.75;;;19.50;73.10;;;;;;5073250;28;20128;-39
2023/06/07 05:50:15;;;;;;;4.88;1.98;;;;;;;;;;5068200;28;20052;-38
2023/06/07 05:52:42;;;;;;;4.35;1.83;;;19.70;74.00;;;;;;5072136;28;20098;-40
2023/06/07 05:55:09;;;;;;;2.65;1.52;;;19.40;55.30;;;;;;5073201;28;20561;-38
2023/06/07 05:57:37;;;;;;;4.13;1.85;;;20.10;73.30;;;;;;5073715;28;20070;-41
2023/06/07 06:00:08;;;;;;;5.28;1.90;;;19.80;73.20;;;;;;5073557;28;20127;-41
2023/06/07 06:02:37;;;;;;;2.70;1.67;;;;;;;;;;5073368;28;20076;-41
2023/06/07 06:05:04;;;;;;;2.65;1.75;;;20.00;73.30;;;;;;5073330;28;20048;-39
2023/06/07 06:07:31;;;;;;;2.70;1.70;;;;;;;;;;5072527;28;20048;-38
2023/06/07 06:09:58;;;;;;;4.32;1.95;;;19.70;73.20;;;;;;5073300;28;20128;-41
2023/06/07 06:12:25;;;;;;;3.03;1.80;;;;;;;;;;5065816;28;20471;-37
2023/06/07 06:14:53;;;;;;;3.75;1.92;;;20.00;73.70;;;;;;5063594;28;20461;-41
2023/06/07 06:17:20;;;;;;;3.38;2.05;;;19.50;72.90;;;;;;5061597;28;20045;-41
2023/06/07 06:19:47;;;;;;;4.93;2.00;;;19.30;61.20;;;;;;5064987;28;20048;-39
2023/06/07 06:22:13;;;;;;;3.22;1.98;;;20.00;59.30;;;;;;5055581;28;20127;-38
2023/06/07 06:24:40;;;;;;;3.78;2.13;;;20.50;63.30;;;;;;5053214;28;20136;-41
2023/06/07 06:27:08;;;;;;;4.28;1.90;;;;;;;;;;5052777;28;20129;-39
2023/06/07 06:29:34;;;;;;;3.35;1.83;;;20.00;74.00;;;;;;5053016;28;20045;-41
2023/06/07 06:32:03;;;;;;;5.45;1.98;;;19.80;55.20;;;;;;5052771;28;20049;-38
2023/06/07 06:34:29;;;;;;;5.88;2.28;;;20.20;73.20;;;;;;5052623;28;20055;-31
2023/06/07 06:36:57;;;;;;;4.65;1.90;;;19.80;73.40;;;;;;5060066;28;20041;-31
2023/06/07 06:39:25;;;;;;;3.17;1.63;;;;;;;;;;5060432;28;20555;-31
2023/06/07 06:41:51;;;;;;;5.85;2.30;;;19.50;73.40;;;;;;5068765;28;20110;-31
2023/06/07 06:44:18;;;;;;;4.45;2.25;;;19.50;62.50;;;;;;5072467;28;20135;-34
2023/06/07 06:46:45;;;;;;;4.80;2.00;;;;;;;;;;5072658;28;20075;-31
2023/06/07 06:49:13;;;;;;;4.78;2.10;;;19.80;55.10;;;;;;5072174;28;20052;-36
2023/06/07 06:51:40;;;;;;;5.32;2.00;;;;;;;;;;5072594;28;20136;-36
2023/06/07 06:54:07;;;;;;;3.08;1.85;;;20.20;74.00;;;;;;5057048;28;20045;-31
2023/06/07 06:56:34;;;;;;;4.68;1.92;;;20.00;73.30;;;;;;5052516;28;20132;-31
2023/06/07 06:59:01;;;;;;;3.83;1.73;;;;;;;;;;5052422;28;20131;-34
2023/06/07 07:01:45;;;;;;;3.22;1.85;;;20.60;73.80;;;;;;5055419;28;20060;-31
2023/06/07 07:04:14;;;;;;;5.30;1.98;;;19.70;73.70;;;;;;5052456;28;20049;-31
2023/06/07 07:06:41;;;;;;;3.28;1.77;;;;;;;;;;5063017;28;20139;-31
2023/06/07 07:09:09;;;;;;;2.88;1.70;;;19.70;72.80;;;;;;5069690;28;20534;-31
2023/06/07 07:11:36;;;;;;;4.97;2.00;;;;;;;;;;5051839;28;20132;-31
2023/06/07 07:14:03;;;;;;;4.95;1.92;;;19.40;72.70;;;;;;5062530;28;20136;-32
2023/06/07 07:16:30;;;;;;;3.55;1.80;;;20.50;73.70;;;;;;5062784;28;20059;-31
2023/06/07 07:18:57;;;;;;;3.28;2.00;;;19.40;72.60;;;;;;5062390;28;20037;-31
2023/06/07 07:21:26;;;;;;;4.13;1.90;;;19.80;70.10;;;;;;5060565;28;20055;-31
2023/06/07 07:23:54;;;;;;;3.70;1.90;;;;;;;;;;5060620;28;20135;-36
2023/06/07 07:26:21;;;;;;;3.80;1.95;;;19.30;66.90;;;;;;5062406;28;20079;-31
2023/06/07 07:28:48;;;;;;;2.85;1.80;;;;;;;;;;5060888;28;20116;-35
2023/06/07 07:31:15;;;;;;;4.60;2.03;;;;;;;;;;5061469;28;20412;-35
2023/06/07 07:33:42;;;;;;;3.15;1.80;;;20.00;61.60;;;;;;5051794;28;20083;-34
2023/06/07 07:36:09;;;;;;;3.85;2.00;;;19.80;73.20;;;;;;5053809;28;20155;-31
2023/06/07 07:38:37;;;;;;;4.43;1.75;;;19.30;54.70;;;;;;5070968;28;20049;-33
2023/06/07 07:41:05;;;;;;;3.97;1.90;;;19.70;56.70;;;;;;5071769;28;20086;-33
2023/06/07 07:43:32;;;;;;;4.80;1.90;;;;;;;;;;5071726;28;20060;-35
2023/06/07 07:45:59;;;;;;;3.38;1.80;;;20.00;72.90;;;;;;5072073;28;20131;-30
2023/06/07 07:48:26;;;;;;;4.78;1.63;;;;;;;;;;5068584;28;20120;-35
2023/06/07 07:50:53;;;;;;;3.88;1.88;;;19.30;73.10;;;;;;5061634;28;20047;-30
2023/06/07 07:53:19;;;;;;;3.78;2.10;;;19.80;72.60;;;;;;5067554;28;20044;-30
2023/06/07 07:55:47;;;;;;;2.50;1.80;;;19.90;54.90;;;;;;5058887;28;20124;-34
2023/06/07 07:58:15;;;;;;;3.22;1.67;;;;;;;;;;5051492;28;20045;-35
2023/06/07 08:00:41;;;;;;;3.67;2.00;;;19.70;72.30;;;;;;5060558;28;20045;-30
2023/06/07 08:03:08;;;;;;;2.30;1.80;;;19.70;72.50;;;;;;5071534;28;20113;-30
2023/06/07 08:05:35;;;;;;;3.60;1.70;;;21.00;73.00;;;;;;5071674;28;20131;-31
2023/06/07 08:08:02;;;;;;;2.55;1.83;;;19.90;72.50;;;;;;5071476;28;20135;-30
2023/06/07 08:10:29;;;;;;;3.72;1.70;;;;;;;;;;5068308;28;20041;-33
2023/06/07 08:12:58;;;;;;;3.33;1.85;;;19.40;72.90;;;;;;5074138;28;20061;-30
2023/06/07 08:15:24;;;;;;;2.80;1.95;;;19.90;72.20;;;;;;5075468;28;20123;-30
2023/06/07 08:17:51;;;;;;;3.42;1.80;;;;;;;;;;5075428;28;20147;-33
2023/06/07 08:20:18;;;;;;;2.60;1.50;;;19.80;72.10;;;;;;5066744;28;20125;-30
2023/06/07 08:22:49;;;;;;;4.95;1.80;;;;;;;;;;5069246;28;20060;-30
2023/06/07 08:25:17;;;;;;;3.33;1.80;;;19.80;72.10;;;;;;5058750;28;20551;-30
2023/06/07 08:27:44;;;;;;;2.95;1.70;;;;;;;;;;5055253;28;20067;-33
2023/06/07 08:30:12;;;;;;;2.42;1.60;;;20.20;54.30;;;;;;5057279;28;20123;-33
2023/06/07 08:32:39;;;;;;;5.22;2.05;;;20.70;73.20;;;;;;5062371;28;20049;-30
2023/06/07 08:35:07;;;;;;;4.40;1.77;;;20.70;54.50;;;;;;5071146;28;20135;-34
2023/06/07 08:37:34;;;;;;;2.80;1.75;;;20.40;71.60;;;;;;5073519;28;20098;-31
2023/06/07 08:40:01;;;;;;;2.95;1.60;;;20.60;72.20;;;;;;5067685;28;20060;-30
2023/06/07 08:42:28;;;;;;;2.78;1.52;;;;;;;;;;5057348;28;20517;-35
2023/06/07 08:44:55;;;;;;;3.03;1.70;;;;;;;;;;5067319;28;20466;-31
2023/06/07 08:47:24;;;;;;;3.10;1.80;;;20.40;54.00;;;;;;5064785;28;20119;-35
2023/06/07 08:49:50;;;;;;;3.42;1.63;;;21.00;69.80;;;;;;5072939;28;20132;-31
2023/06/07 08:52:17;;;;;;;2.33;1.60;;;21.40;72.40;;;;;;5074568;28;20054;-31
2023/06/07 08:54:44;;;;;;;2.60;1.80;;;20.50;71.50;;;;;;5074876;28;20123;-30
2023/06/07 08:57:14;;;;;;;3.33;1.70;;;20.60;72.30;;;;;;5074878;28;20131;-30
2023/06/07 08:59:41;;;;;;;3.17;1.88;;;;;;;;;;5074423;28;20044;-31
2023/06/07 09:02:09;;;;;;;2.28;1.65;;;;;;;;;;5074447;28;20052;-33
2023/06/07 09:04:37;;;;;;;2.60;1.80;;;20.90;71.60;;;;;;5069781;28;20131;-31
2023/06/07 09:07:06;;;;;;;2.65;1.70;;;20.50;72.20;;;;;;5064580;28;20096;-30
2023/06/07 09:09:33;;;;;;;2.42;1.63;;;21.00;56.90;;;;;;5065157;28;20094;-33
2023/06/07 09:11:59;;;;;;;2.85;1.92;;;20.80;72.10;;;;;;5063518;28;20041;-31
2023/06/07 09:14:28;;;;;;;2.58;1.50;;;20.60;71.90;;;;;;5063521;28;20045;-30
2023/06/07 09:16:55;;;;;;;2.10;1.60;;;;;;;;;;5060362;28;20045;-35
2023/06/07 09:19:31;;;;;;;2.72;1.55;;;20.40;71.00;;;;;;5056522;28;20049;-30
2023/06/07 09:21:59;;;;;;;3.97;1.63;;;21.10;71.70;;;;;;5071681;28;20052;-30
2023/06/07 09:24:27;;;;;;;2.45;1.60;;;20.60;71.30;;;;;;5063777;28;20044;-31
2023/06/07 09:26:54;;;;;;;3.63;1.80;;;20.10;66.70;;;;;;5070610;28;20045;-31
2023/06/07 09:29:21;;;;;;;3.55;1.80;;;;;;;;;;5063376;28;20037;-31
2023/06/07 09:31:47;;;;;;;3.63;2.20;;;20.50;65.40;;;;;;5073075;28;20051;-31
2023/06/07 09:34:21;;;;;;;3.35;1.60;;;20.80;71.70;;;;;;5073756;28;20151;-30
2023/06/07 09:36:51;;;;;;;2.25;1.58;;;20.90;54.40;;;;;;5073505;28;20139;-33
2023/06/07 09:39:23;;;;;;;3.58;1.70;;;20.50;71.40;;;;;;5073863;28;20127;-31
2023/06/07 09:41:51;;;;;;;1.85;1.60;;;21.00;53.20;;;;;;5073866;28;20132;-32
2023/06/07 09:44:25;;;;;;;2.10;1.52;;;20.70;54.40;;;;;;5073397;28;20048;-34
2023/06/07 09:46:52;;;;;;;2.75;1.50;;;;;;;;;;5073590;28;20570;-35
2023/06/07 09:49:28;;;;;;;2.80;1.70;;;21.60;54.20;;;;;;5072921;28;20132;-30
2023/06/07 09:51:55;;;;;;;4.68;1.88;;;21.00;71.50;;;;;;5073160;28;20501;-30
2023/06/07 09:54:37;;;;;;;2.47;1.70;;;21.10;53.10;;;;;;5073295;28;20058;-35
2023/06/07 09:57:07;;;;;;;3.13;1.63;;;21.20;53.10;;;;;;5073676;28;20049;-34
2023/06/07 09:59:35;;;;;;;4.13;1.80;;;;;;;;;;5073551;28;20097;-35
2023/06/07 10:02:02;;;;;;;2.85;1.80;;;;;;;;;;5073506;28;20045;-32
2023/06/07 10:04:31;;;;;;;3.15;1.70;;;20.70;65.10;;;;;;5073006;28;20524;-32
2023/06/07 10:07:00;;;;;;;3.97;1.80;;;;;;;;;;5072444;28;20053;-35
2023/06/07 10:09:27;;;;;;;2.67;1.80;;;22.40;71.10;;;;;;5073312;28;20048;-30
2023/06/07 10:11:56;;;;;;;4.15;1.85;;;21.60;70.60;;;;;;5073175;28;20485;-30
2023/06/07 10:14:27;;;;;;;2.95;1.77;;;21.30;52.90;;;;;;5073028;28;20528;-34
2023/06/07 10:16:58;;;;;;;3.05;1.70;;;21.30;52.90;;;;;;5073043;28;20621;-35
2023/06/07 10:19:27;;;;;;;2.85;1.75;;;21.50;65.60;;;;;;5073053;28;20079;-31
2023/06/07 10:21:54;;;;;;;2.55;1.65;;;20.20;70.20;;;;;;5053828;28;20132;-30
2023/06/07 10:24:24;;;;;;;2.88;1.58;;;21.40;52.90;;;;;;5052905;28;20053;-30
2023/06/07 10:26:53;;;;;;;2.53;1.70;;;21.50;71.40;;;;;;5053071;28;20053;-30
2023/06/07 10:29:24;;;;;;;3.08;1.45;;;21.40;52.90;;;;;;5060914;28;20043;-31
2023/06/07 10:31:54;;;;;;;2.72;1.80;;;21.40;52.90;;;;;;5052767;28;20127;-36
2023/06/07 10:34:21;;;;;;;3.15;1.80;;;;;;;;;;5051267;28;20045;-36
2023/06/07 10:36:48;;;;;;;2.85;1.65;;;21.80;71.30;;;;;;5054317;28;20512;-30
2023/06/07 10:39:15;;;;;;;2.85;1.77;;;21.50;71.20;;;;;;5062757;28;20124;-30
2023/06/07 10:41:42;;;;;;;2.58;1.80;;;20.90;70.80;;;;;;5060237;28;20132;-31
2023/06/07 10:44:10;;;;;;;2.97;1.75;;;21.30;70.50;;;;;;5062890;28;20135;-30
2023/06/07 10:46:39;;;;;;;2.83;1.92;;;21.50;52.80;;;;;;5070314;28;20523;-35
2023/06/07 10:49:06;;;;;;;2.08;1.73;;;;;;;;;;5072001;28;20102;-34
2023/06/07 10:52:04;;;;;;;2.13;1.60;;;21.50;52.80;;;;;;5071537;28;20123;-31
2023/06/07 10:54:31;;;;;;;2.22;1.50;;;21.60;70.40;;;;;;5071634;28;20145;-30
2023/06/07 10:56:59;;;;;;;2.70;1.90;;;;;;;;;;5071287;28;20149;-34
2023/06/07 10:59:26;;;;;;;2.45;1.70;;;22.20;53.20;;;;;;5052218;28;20080;-35
2023/06/07 11:01:55;;;;;;;3.67;1.58;;;21.40;61.10;;;;;;5068836;28;20533;-31
2023/06/07 11:04:52;;;;;;;3.00;1.70;;;22.10;66.30;;;;;;5061297;28;20397;-31
2023/06/07 11:07:19;;;;;;;2.17;1.60;;;20.80;62.70;;;;;;5053911;28;20143;-32
2023/06/07 11:09:46;;;;;;;2.65;1.60;;;21.50;58.20;;;;;;5072392;28;20135;-30
2023/06/07 11:12:46;;;;;;;3.75;1.70;;;20.70;68.80;;;;;;5071781;28;20106;-33
2023/06/07 11:15:25;;;;;;;3.45;1.60;;;21.50;71.00;;;;;;5071382;28;20051;-31
2023/06/07 11:17:55;;;;;;;2.40;1.70;;;21.60;52.90;;;;;;5071790;28;20059;-33
2023/06/07 11:20:49;;;;;;;3.67;1.83;;;21.50;52.80;;;;;;5072267;28;20093;-30
2023/06/07 11:23:26;;;;;;;3.22;1.70;;;21.70;71.20;;;;;;5071818;28;20052;-30
2023/06/07 11:25:54;;;;;;;2.88;1.70;;;21.60;52.90;;;;;;5071836;28;20048;-34
2023/06/07 11:28:24;;;;;;;2.20;1.52;;;21.60;52.90;;;;;;5071412;28;20140;-35
2023/06/07 11:30:52;;;;;;;2.72;1.60;;;;;;;;;;5052094;28;20379;-31
2023/06/07 11:33:21;;;;;;;2.47;1.77;;;21.50;70.20;;;;;;5051688;28;20103;-30
2023/06/07 11:35:48;;;;;;;3.10;1.67;;;21.20;70.80;;;;;;5052025;28;20135;-32
2023/06/07 11:38:16;;;;;;;3.33;1.67;;;;;;;;;;5051405;28;20052;-35
2023/06/07 11:40:43;;;;;;;2.45;1.60;;;21.60;71.10;;;;;;5063327;28;20459;-31
2023/06/07 11:43:10;;;;;;;2.42;1.50;;;21.90;53.20;;;;;;5070841;28;20049;-31
2023/06/07 11:45:38;;;;;;;2.28;1.58;;;21.40;70.10;;;;;;5071488;28;20048;-30
2023/06/07 11:48:05;;;;;;;2.28;1.60;;;22.20;71.40;;;;;;5071171;28;20062;-30
2023/06/07 11:50:34;;;;;;;2.30;1.60;;;21.50;70.50;;;;;;5071486;28;20044;-31
2023/06/07 11:53:01;;;;;;;2.72;1.73;;;21.90;70.20;;;;;;5071424;28;20123;-30
2023/06/07 11:55:28;;;;;;;3.10;1.70;;;21.70;60.90;;;;;;5071297;28;20064;-32
2023/06/07 11:57:55;;;;;;;2.53;1.65;;;22.20;58.90;;;;;;5070686;28;20147;-32
2023/06/07 12:00:23;;;;;;;3.35;1.70;;;21.80;53.00;;;;;;5071121;28;20041;-34
2023/06/07 12:02:51;;;;;;;3.20;1.70;;;;;;;;;;5071309;28;20490;-36
2023/06/07 12:05:18;;;;;;;3.25;1.70;;;;;;;;;;5071550;28;20608;-33
2023/06/07 12:07:53;;;;;;;4.03;1.67;;;21.70;70.10;;;;;;5071075;28;20059;-31
2023/06/07 12:10:24;;;;;;;2.78;1.83;;;21.70;53.00;;;;;;5071691;28;20053;-34
2023/06/07 12:13:10;;;;;;;3.33;1.70;;;21.70;53.00;;;;;;5071301;28;20059;-31
2023/06/07 12:15:47;;;;;;;2.00;1.55;;;21.70;70.20;;;;;;5058897;28;20053;-30
2023/06/07 12:18:14;;;;;;;2.17;1.70;;;22.70;70.80;;;;;;5051245;28;20052;-31
2023/06/07 12:20:42;;;;;;;1.70;1.38;;;21.40;65.50;;;;;;5051453;28;20051;-31
2023/06/07 12:23:10;;;;;;;2.85;1.70;;;21.70;53.00;;;;;;5051273;28;20048;-34
2023/06/07 12:25:37;;;;;;;3.35;1.85;;;21.50;70.00;;;;;;5050978;28;20052;-31
2023/06/07 12:28:06;;;;;;;2.55;1.70;;;21.80;70.30;;;;;;5051282;28;20128;-30
2023/06/07 12:30:33;;;;;;;3.30;1.80;;;22.00;61.60;;;;;;5056609;28;20052;-31
2023/06/07 12:33:00;;;;;;;2.20;1.55;;;22.90;70.80;;;;;;5070917;28;20061;-30
2023/06/07 12:35:30;;;;;;;2.95;1.60;;;20.90;57.90;;;;;;5071158;28;20056;-32
2023/06/07 12:37:57;;;;;;;2.13;1.67;;;;;;;;;;5070530;28;20143;-35
2023/06/07 12:40:25;;;;;;;3.20;1.67;;;21.30;70.80;;;;;;5069583;28;20045;-31
2023/06/07 12:42:52;;;;;;;2.97;1.52;;;21.30;70.90;;;;;;5059891;28;20051;-31
2023/06/07 12:45:19;;;;;;;3.08;1.60;;;;;;;;;;5057173;28;20441;-36
2023/06/07 12:47:46;;;;;;;2.08;1.65;;;21.40;70.00;;;;;;5057767;28;20059;-31
2023/06/07 12:50:13;;;;;;;2.80;1.80;;;;;;;;;;5061294;28;20415;-31
2023/06/07 12:52:40;;;;;;;3.35;2.00;;;21.60;67.00;;;;;;5053721;28;20416;-36
2023/06/07 12:55:07;;;;;;;2.90;1.75;;;22.50;66.10;;;;;;5070622;28;20055;-37
2023/06/07 12:57:35;;;;;;;3.42;1.90;;;21.80;67.40;;;;;;5070643;28;20109;-35
2023/06/07 13:00:02;;;;;;;2.15;1.88;;;22.40;66.50;;;;;;5068959;28;20051;-35
2023/06/07 13:02:29;;;;;;;3.38;2.10;;;21.80;70.70;;;;;;5069345;28;20052;-36
2023/06/07 13:04:56;;;;;;;2.05;1.58;;;;;;;;;;5054515;28;20135;-34
2023/06/07 13:07:23;;;;;;;3.50;1.70;;;22.20;70.50;;;;;;5053692;28;20076;-39
2023/06/07 13:09:50;;;;;;;2.22;1.63;;;21.90;57.60;;;;;;5054152;28;20047;-36
2023/06/07 13:12:17;;;;;;;2.33;1.63;;;21.50;70.30;;;;;;5054023;28;20053;-36
2023/06/07 13:14:45;;;;;;;2.50;1.83;;;21.50;70.40;;;;;;5066306;28;20052;-39